sensor_id;sensor_type;location;lat;lon;timestamp;pressure;altitude;pressure_sealevel;temperature;humidity
75447;BME280;64024;55.820;37.574;2022-12-10T00:01:49;98666.50;;;11.90;46.28
75447;BME280;64024;55.820;37.574;2022-12-10T00:04:15;98684.13;;;11.91;46.27
75447;BME280;64024;55.820;37.574;2022-12-10T00:06:41;98686.56;;;11.92;46.49
75447;BME280;64024;55.820;37.574;2022-12-10T00:09:10;98678.81;;;11.91;46.64
75447;BME280;64024;55.820;37.574;2022-12-10T00:11:38;98683.31;;;11.90;46.65
75447;BME280;64024;55.820;37.574;2022-12-10T00:14:04;98687.00;;;11.89;46.95
75447;BME280;64024;55.820;37.574;2022-12-10T00:16:29;98697.66;;;11.89;47.05
75447;BME280;64024;55.820;37.574;2022-12-10T00:18:58;98688.06;;;11.88;47.07
75447;BME280;64024;55.820;37.574;2022-12-10T00:21:26;98686.44;;;11.87;47.06
75447;BME280;64024;55.820;37.574;2022-12-10T00:23:53;98670.66;;;11.86;47.39
75447;BME280;64024;55.820;37.574;2022-12-10T00:26:30;98676.84;;;11.86;47.49
75447;BME280;64024;55.820;37.574;2022-12-10T00:28:57;98679.50;;;11.86;47.34
75447;BME280;64024;55.820;37.574;2022-12-10T00:31:25;98680.31;;;11.87;47.44
75447;BME280;64024;55.820;37.574;2022-12-10T00:33:53;98670.47;;;11.87;47.63
75447;BME280;64024;55.820;37.574;2022-12-10T00:36:22;98679.25;;;11.88;47.25
75447;BME280;64024;55.820;37.574;2022-12-10T00:38:55;98675.78;;;11.87;47.58
75447;BME280;64024;55.820;37.574;2022-12-10T00:41:21;98677.41;;;11.88;47.21
75447;BME280;64024;55.820;37.574;2022-12-10T00:43:47;98665.94;;;11.88;47.54
75447;BME280;64024;55.820;37.574;2022-12-10T00:46:15;98653.69;;;11.87;47.29
75447;BME280;64024;55.820;37.574;2022-12-10T00:48:42;98655.28;;;11.88;47.37
75447;BME280;64024;55.820;37.574;2022-12-10T00:51:16;98656.91;;;11.89;47.36
75447;BME280;64024;55.820;37.574;2022-12-10T00:53:43;98644.41;;;11.89;47.34
75447;BME280;64024;55.820;37.574;2022-12-10T00:56:11;98652.38;;;11.89;47.32
75447;BME280;64024;55.820;37.574;2022-12-10T00:58:38;98667.56;;;11.89;47.24
75447;BME280;64024;55.820;37.574;2022-12-10T01:03:33;98671.03;;;11.89;47.31
75447;BME280;64024;55.820;37.574;2022-12-10T01:06:08;98662.84;;;11.91;47.02
75447;BME280;64024;55.820;37.574;2022-12-10T01:08:34;98645.22;;;11.90;47.13
75447;BME280;64024;55.820;37.574;2022-12-10T01:10:59;98631.69;;;11.91;46.84
75447;BME280;64024;55.820;37.574;2022-12-10T01:13:25;98616.75;;;11.90;46.76
75447;BME280;64024;55.820;37.574;2022-12-10T01:15:50;98630.88;;;11.91;46.97
75447;BME280;64024;55.820;37.574;2022-12-10T01:18:16;98636.19;;;11.91;46.80
75447;BME280;64024;55.820;37.574;2022-12-10T01:20:41;98635.41;;;11.90;46.80
75447;BME280;64024;55.820;37.574;2022-12-10T01:23:08;98641.75;;;11.89;46.89
75447;BME280;64024;55.820;37.574;2022-12-10T01:25:33;98637.22;;;11.90;46.76
75447;BME280;64024;55.820;37.574;2022-12-10T01:27:59;98635.41;;;11.90;46.86
75447;BME280;64024;55.820;37.574;2022-12-10T01:30:24;98629.03;;;11.91;46.83
75447;BME280;64024;55.820;37.574;2022-12-10T01:32:50;98625.56;;;11.91;46.47
75447;BME280;64024;55.820;37.574;2022-12-10T01:35:15;98624.75;;;11.90;46.77
75447;BME280;64024;55.820;37.574;2022-12-10T01:37:41;98629.03;;;11.91;46.41
75447;BME280;64024;55.820;37.574;2022-12-10T01:40:07;98633.28;;;11.92;46.57
75447;BME280;64024;55.820;37.574;2022-12-10T01:42:33;98640.25;;;11.93;46.44
75447;BME280;64024;55.820;37.574;2022-12-10T01:45:02;98634.09;;;11.93;46.28
75447;BME280;64024;55.820;37.574;2022-12-10T01:47:28;98633.88;;;11.94;46.52
75447;BME280;64024;55.820;37.574;2022-12-10T01:49:53;98626.72;;;11.95;46.48
75447;BME280;64024;55.820;37.574;2022-12-10T01:52:19;98635.25;;;11.97;46.53
75447;BME280;64024;55.820;37.574;2022-12-10T01:54:46;98636.66;;;12.00;46.52
75447;BME280;64024;55.820;37.574;2022-12-10T01:57:23;98630.28;;;12.01;46.31
75447;BME280;64024;55.820;37.574;2022-12-10T01:59:59;98635.38;;;12.02;46.08
75447;BME280;64024;55.820;37.574;2022-12-10T02:13:24;98637.56;;;12.05;46.08
75447;BME280;64024;55.820;37.574;2022-12-10T02:16:04;98629.84;;;12.04;46.34
75447;BME280;64024;55.820;37.574;2022-12-10T02:18:40;98638.63;;;12.04;46.08
75447;BME280;64024;55.820;37.574;2022-12-10T02:21:13;98646.88;;;12.03;46.22
75447;BME280;64024;55.820;37.574;2022-12-10T02:23:42;98651.94;;;12.04;46.13
75447;BME280;64024;55.820;37.574;2022-12-10T02:26:15;98651.94;;;12.04;45.87
75447;BME280;64024;55.820;37.574;2022-12-10T02:31:25;98624.25;;;12.05;46.06
75447;BME280;64024;55.820;37.574;2022-12-10T02:33:56;98632.25;;;12.05;46.38
75447;BME280;64024;55.820;37.574;2022-12-10T02:36:25;98629.59;;;12.05;46.10
75447;BME280;64024;55.820;37.574;2022-12-10T02:38:52;98633.06;;;12.06;45.80
75447;BME280;64024;55.820;37.574;2022-12-10T02:41:32;98618.94;;;12.05;45.91
75447;BME280;64024;55.820;37.574;2022-12-10T02:43:59;98617.88;;;12.06;45.80
75447;BME280;64024;55.820;37.574;2022-12-10T02:46:27;98613.59;;;12.05;45.79
75447;BME280;64024;55.820;37.574;2022-12-10T02:48:55;98622.41;;;12.06;45.96
75447;BME280;64024;55.820;37.574;2022-12-10T02:51:22;98601.09;;;12.06;45.79
75447;BME280;64024;55.820;37.574;2022-12-10T02:53:47;98618.72;;;12.07;45.81
75447;BME280;64024;55.820;37.574;2022-12-10T02:59:00;98599.03;;;12.08;45.71
75447;BME280;64024;55.820;37.574;2022-12-10T03:04:16;98599.84;;;12.08;45.85
75447;BME280;64024;55.820;37.574;2022-12-10T03:06:50;98599.84;;;12.08;45.83
75447;BME280;64024;55.820;37.574;2022-12-10T03:09:24;98599.59;;;12.10;45.74
75447;BME280;64024;55.820;37.574;2022-12-10T03:11:59;98598.53;;;12.11;45.61
75447;BME280;64024;55.820;37.574;2022-12-10T03:14:32;98597.28;;;12.13;45.91
75447;BME280;64024;55.820;37.574;2022-12-10T03:16:59;98602.59;;;12.13;46.14
75447;BME280;64024;55.820;37.574;2022-12-10T03:19:31;98605.72;;;12.22;46.34
75447;BME280;64024;55.820;37.574;2022-12-10T03:21:58;98602.50;;;12.20;46.43
75447;BME280;64024;55.820;37.574;2022-12-10T03:24:26;98604.34;;;12.19;46.91
75447;BME280;64024;55.820;37.574;2022-12-10T03:26:52;98606.06;;;12.26;47.17
75447;BME280;64024;55.820;37.574;2022-12-10T03:29:27;98603.06;;;12.22;47.32
75447;BME280;64024;55.820;37.574;2022-12-10T03:31:54;98602.50;;;12.20;47.14
75447;BME280;64024;55.820;37.574;2022-12-10T03:34:21;98608.84;;;12.19;47.42
75447;BME280;64024;55.820;37.574;2022-12-10T03:36:47;98597.38;;;12.18;47.50
75447;BME280;64024;55.820;37.574;2022-12-10T03:39:14;98595.53;;;12.19;47.28
75447;BME280;64024;55.820;37.574;2022-12-10T03:41:40;98598.19;;;12.19;47.46
75447;BME280;64024;55.820;37.574;2022-12-10T03:44:06;98602.50;;;12.20;47.36
75447;BME280;64024;55.820;37.574;2022-12-10T03:46:32;98607.56;;;12.22;47.39
75447;BME280;64024;55.820;37.574;2022-12-10T03:48:59;98608.63;;;12.21;47.32
75447;BME280;64024;55.820;37.574;2022-12-10T03:51:25;98608.63;;;12.21;47.16
75447;BME280;64024;55.820;37.574;2022-12-10T03:53:50;98604.91;;;12.22;47.23
75447;BME280;64024;55.820;37.574;2022-12-10T03:56:17;98611.84;;;12.23;47.11
75447;BME280;64024;55.820;37.574;2022-12-10T03:58:43;98604.91;;;12.22;47.08
75447;BME280;64024;55.820;37.574;2022-12-10T04:01:09;98606.53;;;12.23;47.13
75447;BME280;64024;55.820;37.574;2022-12-10T04:03:39;98599.34;;;12.23;47.37
75447;BME280;64024;55.820;37.574;2022-12-10T04:06:10;98594.84;;;12.24;47.10
75447;BME280;64024;55.820;37.574;2022-12-10T04:08:36;98599.13;;;12.25;47.15
75447;BME280;64024;55.820;37.574;2022-12-10T04:11:06;98603.41;;;12.26;47.39
75447;BME280;64024;55.820;37.574;2022-12-10T04:13:33;98597.25;;;12.25;47.11
75447;BME280;64024;55.820;37.574;2022-12-10T04:16:17;98604.78;;;12.28;46.99
75447;BME280;64024;55.820;37.574;2022-12-10T04:21:21;98601.31;;;12.28;47.11
75447;BME280;64024;55.820;37.574;2022-12-10T04:24:07;98610.69;;;12.30;46.91
75447;BME280;64024;55.820;37.574;2022-12-10T04:26:52;98605.34;;;12.30;46.99
75447;BME280;64024;55.820;37.574;2022-12-10T04:29:19;98616.25;;;12.29;46.71
75447;BME280;64024;55.820;37.574;2022-12-10T04:31:45;98622.63;;;12.28;46.71
75447;BME280;64024;55.820;37.574;2022-12-10T04:34:11;98621.00;;;12.27;46.70
75447;BME280;64024;55.820;37.574;2022-12-10T04:36:36;98619.13;;;12.27;46.76
75447;BME280;64024;55.820;37.574;2022-12-10T04:39:03;98623.66;;;12.27;46.70
75447;BME280;64024;55.820;37.574;2022-12-10T04:41:29;98619.38;;;12.26;46.79
75447;BME280;64024;55.820;37.574;2022-12-10T04:43:54;98608.72;;;12.26;46.64
75447;BME280;64024;55.820;37.574;2022-12-10T04:46:20;98613.81;;;12.27;46.52
75447;BME280;64024;55.820;37.574;2022-12-10T04:48:45;98616.47;;;12.27;46.69
75447;BME280;64024;55.820;37.574;2022-12-10T04:51:11;98610.94;;;12.29;46.59
75447;BME280;64024;55.820;37.574;2022-12-10T04:53:36;98615.44;;;12.28;46.56
75447;BME280;64024;55.820;37.574;2022-12-10T04:56:02;98609.06;;;12.29;46.97
75447;BME280;64024;55.820;37.574;2022-12-10T04:58:31;98613.34;;;12.30;46.63
75447;BME280;64024;55.820;37.574;2022-12-10T05:01:08;98604.31;;;12.31;46.93
75447;BME280;64024;55.820;37.574;2022-12-10T05:03:34;98605.34;;;12.30;46.72
75447;BME280;64024;55.820;37.574;2022-12-10T05:06:02;98598.97;;;12.31;46.66
75447;BME280;64024;55.820;37.574;2022-12-10T05:08:27;98596.91;;;12.33;46.73
75447;BME280;64024;55.820;37.574;2022-12-10T05:10:53;98589.97;;;12.32;46.70
75447;BME280;64024;55.820;37.574;2022-12-10T05:13:18;98592.38;;;12.34;46.82
75447;BME280;64024;55.820;37.574;2022-12-10T05:15:44;98590.53;;;12.34;46.69
75447;BME280;64024;55.820;37.574;2022-12-10T05:18:09;98600.13;;;12.35;46.97
75447;BME280;64024;55.820;37.574;2022-12-10T05:20:35;98608.13;;;12.35;47.00
75447;BME280;64024;55.820;37.574;2022-12-10T05:23:00;98611.63;;;12.36;47.07
75447;BME280;64024;55.820;37.574;2022-12-10T05:25:45;98614.03;;;12.37;47.27
75447;BME280;64024;55.820;37.574;2022-12-10T05:28:22;98599.91;;;12.37;47.47
75447;BME280;64024;55.820;37.574;2022-12-10T05:30:48;98601.53;;;12.38;47.58
75447;BME280;64024;55.820;37.574;2022-12-10T05:33:14;98602.31;;;12.38;47.58
75447;BME280;64024;55.820;37.574;2022-12-10T05:35:39;98597.81;;;12.39;47.83
75447;BME280;64024;55.820;37.574;2022-12-10T05:38:05;98598.41;;;12.41;47.76
75447;BME280;64024;55.820;37.574;2022-12-10T05:40:35;98601.88;;;12.41;48.10
75447;BME280;64024;55.820;37.574;2022-12-10T05:43:01;98600.81;;;12.42;48.04
75447;BME280;64024;55.820;37.574;2022-12-10T05:45:26;98601.41;;;12.44;47.86
75447;BME280;64024;55.820;37.574;2022-12-10T05:47:52;98610.19;;;12.45;47.94
75447;BME280;64024;55.820;37.574;2022-12-10T05:50:17;98616.34;;;12.46;48.20
75447;BME280;64024;55.820;37.574;2022-12-10T05:52:43;98611.56;;;12.48;48.05
75447;BME280;64024;55.820;37.574;2022-12-10T05:55:08;98618.75;;;12.47;48.29
75447;BME280;64024;55.820;37.574;2022-12-10T05:57:36;98611.56;;;12.48;48.21
75447;BME280;64024;55.820;37.574;2022-12-10T06:00:03;98615.03;;;12.48;48.22
75447;BME280;64024;55.820;37.574;2022-12-10T06:02:32;98614.00;;;12.49;48.12
75447;BME280;64024;55.820;37.574;2022-12-10T06:04:57;98608.69;;;12.49;48.15
75447;BME280;64024;55.820;37.574;2022-12-10T06:07:23;98600.19;;;12.52;48.07
75447;BME280;64024;55.820;37.574;2022-12-10T06:09:48;98596.50;;;12.53;48.02
75447;BME280;64024;55.820;37.574;2022-12-10T06:12:14;98598.94;;;12.55;48.11
75447;BME280;64024;55.820;37.574;2022-12-10T06:14:39;98596.84;;;12.57;48.08
75447;BME280;64024;55.820;37.574;2022-12-10T06:17:05;98600.06;;;12.59;48.08
75447;BME280;64024;55.820;37.574;2022-12-10T06:19:30;98596.34;;;12.60;48.44
75447;BME280;64024;55.820;37.574;2022-12-10T06:21:56;98592.41;;;12.62;48.26
75447;BME280;64024;55.820;37.574;2022-12-10T06:24:23;98597.50;;;12.64;48.44
75447;BME280;64024;55.820;37.574;2022-12-10T06:26:48;98592.75;;;12.66;48.40
75447;BME280;64024;55.820;37.574;2022-12-10T06:29:14;98599.69;;;12.67;48.22
75447;BME280;64024;55.820;37.574;2022-12-10T06:31:39;98591.25;;;12.70;48.30
75447;BME280;64024;55.820;37.574;2022-12-10T06:34:05;98591.78;;;12.72;48.16
75447;BME280;64024;55.820;37.574;2022-12-10T06:36:30;98596.09;;;12.73;48.10
75447;BME280;64024;55.820;37.574;2022-12-10T06:38:56;98593.19;;;12.75;48.33
75447;BME280;64024;55.820;37.574;2022-12-10T06:41:22;98587.59;;;12.76;48.31
75447;BME280;64024;55.820;37.574;2022-12-10T06:43:48;98581.81;;;12.79;48.09
75447;BME280;64024;55.820;37.574;2022-12-10T06:46:16;98581.81;;;12.79;48.21
75447;BME280;64024;55.820;37.574;2022-12-10T06:48:42;98589.56;;;12.81;48.32
75447;BME280;64024;55.820;37.574;2022-12-10T06:51:09;98592.81;;;12.83;48.16
75447;BME280;64024;55.820;37.574;2022-12-10T06:53:36;98589.09;;;12.84;48.26
75447;BME280;64024;55.820;37.574;2022-12-10T06:56:02;98585.16;;;12.86;48.00
75447;BME280;64024;55.820;37.574;2022-12-10T06:58:29;98586.28;;;12.90;48.17
75447;BME280;64024;55.820;37.574;2022-12-10T07:01:10;98586.03;;;12.92;48.41
75447;BME280;64024;55.820;37.574;2022-12-10T07:03:37;98585.22;;;12.91;47.89
75447;BME280;64024;55.820;37.574;2022-12-10T07:06:03;98591.97;;;12.94;47.78
75447;BME280;64024;55.820;37.574;2022-12-10T07:08:29;98586.38;;;12.96;47.88
75447;BME280;64024;55.820;37.574;2022-12-10T07:10:55;98584.03;;;12.99;47.85
75447;BME280;64024;55.820;37.574;2022-12-10T07:13:21;98587.25;;;13.01;47.74
75447;BME280;64024;55.820;37.574;2022-12-10T07:15:46;98592.38;;;13.03;47.60
75447;BME280;64024;55.820;37.574;2022-12-10T07:18:12;98586.78;;;13.04;47.45
75447;BME280;64024;55.820;37.574;2022-12-10T07:20:38;98591.06;;;13.05;47.35
75447;BME280;64024;55.820;37.574;2022-12-10T07:23:03;98590.84;;;13.07;47.59
75447;BME280;64024;55.820;37.574;2022-12-10T07:25:29;98589.53;;;13.09;47.43
75447;BME280;64024;55.820;37.574;2022-12-10T07:27:55;98598.34;;;13.10;47.24
75447;BME280;64024;55.820;37.574;2022-12-10T07:30:21;98595.47;;;13.11;47.53
75447;BME280;64024;55.820;37.574;2022-12-10T07:32:46;98598.69;;;13.13;47.25
75447;BME280;64024;55.820;37.574;2022-12-10T07:35:12;98598.69;;;13.13;47.03
75447;BME280;64024;55.820;37.574;2022-12-10T07:37:37;98597.88;;;13.13;47.06
75447;BME280;64024;55.820;37.574;2022-12-10T07:40:03;98599.50;;;13.14;47.00
75447;BME280;64024;55.820;37.574;2022-12-10T07:42:29;98599.28;;;13.15;46.77
75447;BME280;64024;55.820;37.574;2022-12-10T07:44:54;98600.88;;;13.16;46.77
75447;BME280;64024;55.820;37.574;2022-12-10T07:47:20;98592.88;;;13.16;46.78
75447;BME280;64024;55.820;37.574;2022-12-10T07:49:45;98596.34;;;13.17;46.80
75447;BME280;64024;55.820;37.574;2022-12-10T07:52:11;98592.63;;;13.18;46.57
75447;BME280;64024;55.820;37.574;2022-12-10T07:54:36;98594.50;;;13.17;46.51
75447;BME280;64024;55.820;37.574;2022-12-10T07:57:02;98595.06;;;13.19;46.23
75447;BME280;64024;55.820;37.574;2022-12-10T07:59:28;98594.81;;;13.21;46.46
75447;BME280;64024;55.820;37.574;2022-12-10T08:01:53;98585.22;;;13.20;46.01
75447;BME280;64024;55.820;37.574;2022-12-10T08:04:19;98590.28;;;13.22;46.15
75447;BME280;64024;55.820;37.574;2022-12-10T08:06:44;98582.28;;;13.22;46.34
75447;BME280;64024;55.820;37.574;2022-12-10T08:09:10;98582.28;;;13.22;46.02
75447;BME280;64024;55.820;37.574;2022-12-10T08:11:37;98582.09;;;13.23;46.02
75447;BME280;64024;55.820;37.574;2022-12-10T08:14:02;98583.94;;;13.23;45.96
75447;BME280;64024;55.820;37.574;2022-12-10T08:16:29;98583.94;;;13.23;46.10
75447;BME280;64024;55.820;37.574;2022-12-10T08:18:58;98587.19;;;13.25;45.98
75447;BME280;64024;55.820;37.574;2022-12-10T08:21:25;98579.31;;;13.35;45.90
75447;BME280;64024;55.820;37.574;2022-12-10T08:23:51;98583.84;;;13.34;45.89
75447;BME280;64024;55.820;37.574;2022-12-10T08:26:24;98587.13;;;13.36;46.29
75447;BME280;64024;55.820;37.574;2022-12-10T08:28:51;98582.31;;;13.38;46.07
75447;BME280;64024;55.820;37.574;2022-12-10T08:31:19;98591.72;;;13.41;45.96
75447;BME280;64024;55.820;37.574;2022-12-10T08:33:44;98578.94;;;13.43;46.12
75447;BME280;64024;55.820;37.574;2022-12-10T08:36:12;98574.16;;;13.45;46.61
75447;BME280;64024;55.820;37.574;2022-12-10T08:38:39;98576.38;;;13.48;46.52
75447;BME280;64024;55.820;37.574;2022-12-10T08:41:09;98568.09;;;13.50;46.25
75447;BME280;64024;55.820;37.574;2022-12-10T08:43:35;98564.16;;;13.52;46.43
75447;BME280;64024;55.820;37.574;2022-12-10T08:46:01;98559.94;;;13.56;46.45
75447;BME280;64024;55.820;37.574;2022-12-10T08:48:26;98560.00;;;13.61;46.12
75447;BME280;64024;55.820;37.574;2022-12-10T08:50:52;98564.63;;;13.66;46.15
75447;BME280;64024;55.820;37.574;2022-12-10T08:53:18;98564.13;;;13.69;46.59
75447;BME280;64024;55.820;37.574;2022-12-10T08:55:43;98562.81;;;13.72;46.42
75447;BME280;64024;55.820;37.574;2022-12-10T08:58:09;98567.94;;;13.73;46.43
75447;BME280;64024;55.820;37.574;2022-12-10T09:00:35;98560.16;;;13.72;46.10
75447;BME280;64024;55.820;37.574;2022-12-10T09:03:01;98558.53;;;13.71;46.07
75447;BME280;64024;55.820;37.574;2022-12-10T09:05:26;98559.59;;;13.70;45.70
75447;BME280;64024;55.820;37.574;2022-12-10T09:07:52;98561.69;;;13.67;45.79
75447;BME280;64024;55.820;37.574;2022-12-10T09:10:17;98560.06;;;13.66;45.64
75447;BME280;64024;55.820;37.574;2022-12-10T09:12:43;98561.13;;;13.65;45.39
75447;BME280;64024;55.820;37.574;2022-12-10T09:15:09;98562.44;;;13.63;45.37
75447;BME280;64024;55.820;37.574;2022-12-10T09:17:35;98554.91;;;13.60;45.27
75447;BME280;64024;55.820;37.574;2022-12-10T09:20:01;98562.91;;;13.60;45.75
75447;BME280;64024;55.820;37.574;2022-12-10T09:22:27;98565.81;;;13.58;45.78
75447;BME280;64024;55.820;37.574;2022-12-10T09:24:53;98554.59;;;13.56;45.79
75447;BME280;64024;55.820;37.574;2022-12-10T09:27:19;98562.59;;;13.56;45.44
75447;BME280;64024;55.820;37.574;2022-12-10T09:29:45;98546.00;;;13.54;45.45
75447;BME280;64024;55.820;37.574;2022-12-10T09:32:11;98547.06;;;13.53;45.53
75447;BME280;64024;55.820;37.574;2022-12-10T09:34:37;98534.78;;;13.52;45.29
75447;BME280;64024;55.820;37.574;2022-12-10T09:37:02;98522.47;;;13.51;45.21
75447;BME280;64024;55.820;37.574;2022-12-10T09:39:28;98531.53;;;13.50;44.61
75447;BME280;64024;55.820;37.574;2022-12-10T09:44:50;98528.31;;;13.48;44.54
75447;BME280;64024;55.820;37.574;2022-12-10T09:47:23;98528.53;;;13.47;44.91
75447;BME280;64024;55.820;37.574;2022-12-10T09:52:42;98525.53;;;13.43;44.39
75447;BME280;64024;55.820;37.574;2022-12-10T09:55:15;98522.31;;;13.41;44.45
75447;BME280;64024;55.820;37.574;2022-12-10T09:58:02;98528.47;;;13.41;44.33
75447;BME280;64024;55.820;37.574;2022-12-10T10:00:34;98522.56;;;13.39;44.15
75447;BME280;64024;55.820;37.574;2022-12-10T10:03:03;98525.22;;;13.39;44.40
75447;BME280;64024;55.820;37.574;2022-12-10T10:05:35;98524.75;;;13.42;44.39
75447;BME280;64024;55.820;37.574;2022-12-10T10:08:06;98519.97;;;13.45;44.64
75447;BME280;64024;55.820;37.574;2022-12-10T10:10:38;98513.59;;;13.46;44.46
75447;BME280;64024;55.820;37.574;2022-12-10T10:15:36;98517.53;;;13.43;44.40
75447;BME280;64024;55.820;37.574;2022-12-10T10:18:52;98521.00;;;13.43;44.29
75447;BME280;64024;55.820;37.574;2022-12-10T10:20:58;98519.66;;;13.41;44.40
75447;BME280;64024;55.820;37.574;2022-12-10T10:23:24;98510.84;;;13.40;44.25
75447;BME280;64024;55.820;37.574;2022-12-10T10:25:50;98503.06;;;13.39;44.59
75447;BME280;64024;55.820;37.574;2022-12-10T10:28:19;98507.03;;;13.36;44.28
75447;BME280;64024;55.820;37.574;2022-12-10T10:30:45;98510.78;;;13.35;44.67
75447;BME280;64024;55.820;37.574;2022-12-10T10:33:13;98502.19;;;13.33;44.74
75447;BME280;64024;55.820;37.574;2022-12-10T10:35:58;98497.66;;;13.34;44.82
75447;BME280;64024;55.820;37.574;2022-12-10T10:38:28;98492.56;;;13.32;45.01
75447;BME280;64024;55.820;37.574;2022-12-10T10:40:59;98491.78;;;13.32;45.19
75447;BME280;64024;55.820;37.574;2022-12-10T10:43:27;98488.84;;;13.33;45.46
75447;BME280;64024;55.820;37.574;2022-12-10T10:46:05;98487.56;;;13.36;45.82
75447;BME280;64024;55.820;37.574;2022-12-10T10:48:31;98474.28;;;13.41;45.89
75447;BME280;64024;55.820;37.574;2022-12-10T10:58:33;98467.88;;;13.42;45.84
75447;BME280;64024;55.820;37.574;2022-12-10T11:01:05;98465.69;;;13.39;45.75
75447;BME280;64024;55.820;37.574;2022-12-10T11:03:34;98460.34;;;13.39;45.80
75447;BME280;64024;55.820;37.574;2022-12-10T11:06:01;98459.56;;;13.38;46.00
75447;BME280;64024;55.820;37.574;2022-12-10T11:08:31;98451.81;;;13.37;45.81
75447;BME280;64024;55.820;37.574;2022-12-10T11:11:12;98447.28;;;13.37;45.81
75447;BME280;64024;55.820;37.574;2022-12-10T11:13:42;98442.41;;;13.34;45.53
75447;BME280;64024;55.820;37.574;2022-12-10T11:16:22;98445.88;;;13.35;45.56
75447;BME280;64024;55.820;37.574;2022-12-10T11:18:56;98439.19;;;13.32;45.73
75447;BME280;64024;55.820;37.574;2022-12-10T11:21:31;98432.25;;;13.31;45.75
75447;BME280;64024;55.820;37.574;2022-12-10T11:23:58;98428.75;;;13.31;45.70
75447;BME280;64024;55.820;37.574;2022-12-10T11:43:08;98421.66;;;13.19;46.97
75447;BME280;64024;55.820;37.574;2022-12-10T11:54:49;98413.88;;;13.18;47.11
75447;BME280;64024;55.820;37.574;2022-12-10T11:57:44;98409.03;;;13.15;47.71
75447;BME280;64024;55.820;37.574;2022-12-10T12:00:26;98398.06;;;13.11;47.69
75447;BME280;64024;55.820;37.574;2022-12-10T12:03:27;98406.06;;;13.11;47.78
75447;BME280;64024;55.820;37.574;2022-12-10T12:09:02;98410.34;;;13.12;47.84
75447;BME280;64024;55.820;37.574;2022-12-10T12:14:26;98417.03;;;13.15;47.97
75447;BME280;64024;55.820;37.574;2022-12-10T12:17:17;98417.28;;;13.13;48.09
75447;BME280;64024;55.820;37.574;2022-12-10T12:19:52;98406.84;;;13.12;48.01
75447;BME280;64024;55.820;37.574;2022-12-10T12:22:23;98401.59;;;13.17;47.97
75447;BME280;64024;55.820;37.574;2022-12-10T12:24:52;98404.19;;;13.12;48.06
75447;BME280;64024;55.820;37.574;2022-12-10T12:27:25;98396.94;;;13.07;48.02
75447;BME280;64024;55.820;37.574;2022-12-10T12:30:02;98398.22;;;13.05;48.45
75447;BME280;64024;55.820;37.574;2022-12-10T12:36:03;98391.25;;;13.04;48.68
75447;BME280;64024;55.820;37.574;2022-12-10T12:43:39;98387.75;;;13.20;47.97
75447;BME280;64024;55.820;37.574;2022-12-10T12:46:16;98390.75;;;13.40;47.61
75447;BME280;64024;55.820;37.574;2022-12-10T12:49:48;98387.72;;;13.54;46.88
75447;BME280;64024;55.820;37.574;2022-12-10T12:51:54;98392.25;;;13.53;46.84
75447;BME280;64024;55.820;37.574;2022-12-10T12:54:22;98390.53;;;13.47;46.97
75447;BME280;64024;55.820;37.574;2022-12-10T12:59:34;98393.09;;;13.37;46.57
75447;BME280;64024;55.820;37.574;2022-12-10T13:04:50;98390.03;;;13.28;46.59
75447;BME280;64024;55.820;37.574;2022-12-10T13:10:09;98396.31;;;13.22;47.00
75447;BME280;64024;55.820;37.574;2022-12-10T13:18:34;98390.78;;;13.24;47.12
75447;BME280;64024;55.820;37.574;2022-12-10T13:20:50;98394.25;;;13.24;47.14
75447;BME280;64024;55.820;37.574;2022-12-10T13:28:47;98399.81;;;13.23;46.89
75447;BME280;64024;55.820;37.574;2022-12-10T13:39:20;98384.19;;;13.14;47.31
75447;BME280;64024;55.820;37.574;2022-12-10T13:47:43;98386.81;;;13.09;47.53
75447;BME280;64024;55.820;37.574;2022-12-10T13:58:26;98375.81;;;13.06;47.38
75447;BME280;64024;55.820;37.574;2022-12-10T14:06:19;98377.13;;;13.03;47.49
75447;BME280;64024;55.820;37.574;2022-12-10T14:08:58;98376.88;;;13.05;47.33
75447;BME280;64024;55.820;37.574;2022-12-10T14:11:31;98367.25;;;13.04;47.44
75447;BME280;64024;55.820;37.574;2022-12-10T14:13:59;98364.34;;;13.05;47.42
75447;BME280;64024;55.820;37.574;2022-12-10T14:16:31;98370.47;;;13.06;47.48
75447;BME280;64024;55.820;37.574;2022-12-10T14:19:04;98368.06;;;13.04;47.39
75447;BME280;64024;55.820;37.574;2022-12-10T14:21:33;98357.41;;;13.04;47.41
75447;BME280;64024;55.820;37.574;2022-12-10T14:23:59;98361.94;;;13.04;47.35
75447;BME280;64024;55.820;37.574;2022-12-10T14:26:29;98375.53;;;13.02;47.49
75447;BME280;64024;55.820;37.574;2022-12-10T14:29:19;98371.00;;;13.03;47.52
75447;BME280;64024;55.820;37.574;2022-12-10T14:31:48;98364.00;;;13.02;47.46
75447;BME280;64024;55.820;37.574;2022-12-10T14:34:17;98355.47;;;13.00;48.08
75447;BME280;64024;55.820;37.574;2022-12-10T14:36:49;98344.00;;;12.99;48.45
75447;BME280;64024;55.820;37.574;2022-12-10T14:39:19;98356.28;;;13.00;47.96
75447;BME280;64024;55.820;37.574;2022-12-10T14:41:45;98353.16;;;12.86;47.47
75447;BME280;64024;55.820;37.574;2022-12-10T14:44:15;98335.31;;;12.53;46.84
75447;BME280;64024;55.820;37.574;2022-12-10T14:46:42;98333.38;;;12.32;47.31
75447;BME280;64024;55.820;37.574;2022-12-10T14:49:17;98327.72;;;12.28;48.16
75447;BME280;64024;55.820;37.574;2022-12-10T14:51:45;98318.75;;;12.34;48.28
75447;BME280;64024;55.820;37.574;2022-12-10T14:54:33;98322.63;;;12.43;48.63
75447;BME280;64024;55.820;37.574;2022-12-10T14:57:06;98309.41;;;12.49;48.38
75447;BME280;64024;55.820;37.574;2022-12-10T14:59:47;98309.16;;;12.50;48.19
75447;BME280;64024;55.820;37.574;2022-12-10T15:04:47;98296.16;;;12.37;48.21
75447;BME280;64024;55.820;37.574;2022-12-10T15:07:17;98282.66;;;12.27;47.94
75447;BME280;64024;55.820;37.574;2022-12-10T15:09:47;98290.25;;;12.18;47.93